createdAt,value
2022-10-12T04:33:34.333Z,45.83
2022-10-12T04:38:37.768Z,49.80
2022-10-12T04:43:41.509Z,42.87
2022-10-12T04:48:44.772Z,56.37
2022-10-12T04:53:48.225Z,57.70
2022-10-12T04:58:51.626Z,50.40
2022-10-12T05:03:55.006Z,50.93
2022-10-12T05:08:58.456Z,45.63
2022-10-12T05:14:01.962Z,55.60
2022-10-12T05:19:05.455Z,62.40
2022-10-12T05:24:08.875Z,59.10
2022-10-12T05:29:12.336Z,65.27
2022-10-12T05:34:15.653Z,54.27
2022-10-12T05:39:18.976Z,54.80
2022-10-12T05:44:22.432Z,56.80
2022-10-12T05:49:26.026Z,69.43
2022-10-12T05:54:29.365Z,58.33
2022-10-12T05:59:32.590Z,58.00
2022-10-12T06:04:35.957Z,63.90
2022-10-12T06:09:39.793Z,62.40
2022-10-12T06:14:43.341Z,58.43
2022-10-12T06:19:46.431Z,58.80
2022-10-12T06:24:49.665Z,64.37
2022-10-12T06:29:52.933Z,60.63
2022-10-12T06:34:56.450Z,63.10
2022-10-12T06:39:59.750Z,50.87
2022-10-12T06:45:03.167Z,50.87
2022-10-12T06:50:07.056Z,53.23
2022-10-12T06:55:11.667Z,47.63
2022-10-12T07:00:15.732Z,44.50
2022-10-12T07:05:21.162Z,46.97
2022-10-12T07:10:25.428Z,46.43
2022-10-12T07:15:28.901Z,51.57
2022-10-12T07:20:32.276Z,42.60
2022-10-12T07:25:35.607Z,60.90
2022-10-12T07:30:38.909Z,50.83
2022-10-12T07:36:03.289Z,45.50
2022-10-12T07:41:05.993Z,55.47
2022-10-12T07:46:09.780Z,49.63
2022-10-12T07:51:13.418Z,49.00
2022-10-12T07:56:17.177Z,52.50
2022-10-12T08:01:22.774Z,50.20
2022-10-12T08:06:28.374Z,51.43
2022-10-12T08:11:31.603Z,47.63
2022-10-12T08:16:34.983Z,43.90
2022-10-12T08:21:38.452Z,34.73
2022-10-12T08:26:41.712Z,34.80
2022-10-12T08:31:45.135Z,32.13
2022-10-12T08:36:48.516Z,23.10
2022-10-12T08:42:10.525Z,30.83
2022-10-12T08:47:32.932Z,33.53
2022-10-12T08:52:44.055Z,27.23
2022-10-12T08:57:49.903Z,20.23
2022-10-12T09:02:57.154Z,22.63
2022-10-12T09:08:25.010Z,15.40
2022-10-12T09:13:48.180Z,14.40
2022-10-12T09:18:57.810Z,23.87
2022-10-12T09:24:01.551Z,14.67
2022-10-12T09:29:24.394Z,11.33
2022-10-12T09:34:27.922Z,7.93
2022-10-12T09:39:38.294Z,14.47
2022-10-12T09:44:49.153Z,11.73
2022-10-12T09:49:53.526Z,10.67
2022-10-12T09:55:19.677Z,11.13
2022-10-12T10:00:28.049Z,8.27
2022-10-12T10:05:36.395Z,8.70
2022-10-12T10:10:48.580Z,6.93
2022-10-12T10:16:01.669Z,9.23
2022-10-12T10:21:11.094Z,11.13
2022-10-12T10:31:27.738Z,8.23
2022-10-12T10:36:40.514Z,6.03
2022-10-12T10:41:44.398Z,6.77
2022-10-12T10:46:47.846Z,7.13
2022-10-12T10:51:57.894Z,9.17
2022-10-12T10:57:05.371Z,9.97
2022-10-12T11:02:32.265Z,5.17
2022-10-12T11:08:06.702Z,10.00
2022-10-12T11:13:15.943Z,15.00
2022-10-12T11:18:37.912Z,13.03
2022-10-12T11:23:55.905Z,12.40
2022-10-12T11:29:00.731Z,15.03
2022-10-12T11:34:12.643Z,15.60
2022-10-12T11:39:22.870Z,6.67
2022-10-12T11:44:46.936Z,9.60
2022-10-12T11:49:56.235Z,8.80
2022-10-12T11:55:32.575Z,8.47
2022-10-12T12:01:12.930Z,8.37
2022-10-12T12:06:31.849Z,8.70
2022-10-12T12:11:36.072Z,7.03
2022-10-12T12:16:43.652Z,9.97
2022-10-12T12:22:12.243Z,6.90
2022-10-12T12:27:29.391Z,7.70
2022-10-12T12:32:48.282Z,6.97
2022-10-12T12:38:13.491Z,6.47
2022-10-12T12:43:20.737Z,7.73
2022-10-12T12:48:42.991Z,8.40
2022-10-12T12:53:52.948Z,8.07
2022-10-12T12:59:26.683Z,7.00
2022-10-12T13:04:35.729Z,4.83
2022-10-12T13:10:06.967Z,5.40
2022-10-12T13:15:27.665Z,5.77
2022-10-12T13:20:33.635Z,5.07
2022-10-12T13:25:56.944Z,6.60
2022-10-12T13:31:03.446Z,4.50
2022-10-12T13:36:22.306Z,6.03
2022-10-12T13:41:27.037Z,4.77
2022-10-12T13:46:43.807Z,5.97
2022-10-12T13:51:50.139Z,10.20
2022-10-12T13:57:00.886Z,6.40
2022-10-12T14:02:17.136Z,11.67
2022-10-12T14:07:39.916Z,4.00
2022-10-12T14:12:46.462Z,6.70
2022-10-12T14:17:51.052Z,5.13
2022-10-12T14:23:05.366Z,4.47
2022-10-12T14:28:18.522Z,6.13
2022-10-12T14:33:23.857Z,5.90
2022-10-12T14:38:43.184Z,4.33
2022-10-12T14:43:51.834Z,4.73
2022-10-12T14:48:55.134Z,3.63
2022-10-12T14:54:09.579Z,4.10
2022-10-12T14:59:12.948Z,4.93
2022-10-12T15:04:16.677Z,8.77
2022-10-12T15:09:20.152Z,13.60
2022-10-12T15:14:25.296Z,6.67
2022-10-12T15:19:28.701Z,8.03
2022-10-12T15:24:32.210Z,6.50
2022-10-12T15:29:35.459Z,6.70
2022-10-12T15:34:39.208Z,4.23
2022-10-12T15:39:42.997Z,7.50
2022-10-12T15:44:46.416Z,9.93
2022-10-12T15:49:49.721Z,10.47
2022-10-12T15:54:54.551Z,10.60
2022-10-12T15:59:58.461Z,8.97
2022-10-12T16:05:02.160Z,9.83
2022-10-12T16:10:05.858Z,7.73
2022-10-12T16:15:09.757Z,11.07
2022-10-12T16:20:13.657Z,9.83
2022-10-12T16:25:21.630Z,12.30
2022-10-12T16:30:25.944Z,16.47
2022-10-12T16:35:29.386Z,13.63
2022-10-12T16:40:33.018Z,14.93
2022-10-12T16:45:36.341Z,13.67
2022-10-12T16:50:41.010Z,18.80
2022-10-12T16:55:44.278Z,19.83
2022-10-12T17:00:48.094Z,19.37
2022-10-12T17:05:59.703Z,21.13
2022-10-12T17:11:11.764Z,20.57
2022-10-12T17:16:33.470Z,16.43
2022-10-12T17:21:42.271Z,19.37
2022-10-12T17:26:46.694Z,20.77
2022-10-12T17:31:50.580Z,19.00
2022-10-12T17:36:55.674Z,26.03
2022-10-12T17:41:59.181Z,22.73
2022-10-12T17:47:02.926Z,21.43
2022-10-12T17:52:06.829Z,19.47
2022-10-12T17:57:10.295Z,25.07
2022-10-12T18:02:13.783Z,21.17
2022-10-12T18:07:18.659Z,27.30
2022-10-12T18:12:22.413Z,33.30
2022-10-12T18:17:25.995Z,35.87
2022-10-12T18:22:30.240Z,33.23
2022-10-12T18:27:34.784Z,33.53
2022-10-12T18:32:38.276Z,37.33
2022-10-12T18:37:41.645Z,44.03
2022-10-12T18:42:44.930Z,31.37
2022-10-12T18:47:48.339Z,35.13
2022-10-12T18:52:51.605Z,31.17
2022-10-12T18:57:54.921Z,35.97
2022-10-12T19:02:58.347Z,37.77
2022-10-12T19:08:01.735Z,33.00
2022-10-12T19:13:05.000Z,35.10
2022-10-12T19:18:10.876Z,30.00
2022-10-12T19:23:14.218Z,29.00
2022-10-12T19:28:17.774Z,25.83
2022-10-12T19:33:21.195Z,26.67
2022-10-12T19:38:24.717Z,25.80
2022-10-12T19:43:28.139Z,25.47
2022-10-12T19:48:31.551Z,24.23
2022-10-12T19:53:35.224Z,29.73
2022-10-12T19:58:38.622Z,34.63
2022-10-12T20:03:45.446Z,23.13
2022-10-12T20:08:56.026Z,23.73
2022-10-12T20:14:08.573Z,26.47
2022-10-12T20:19:12.073Z,22.33
2022-10-12T20:24:15.483Z,34.60
2022-10-12T20:29:19.026Z,38.23
2022-10-12T20:34:22.417Z,41.80
2022-10-12T20:39:25.791Z,46.17
2022-10-12T20:44:29.480Z,47.63
2022-10-12T20:49:32.969Z,50.10
2022-10-12T20:54:36.957Z,52.83
2022-10-12T20:59:40.400Z,54.63
2022-10-12T21:04:44.050Z,51.37
2022-10-12T21:09:47.483Z,52.13
2022-10-12T21:14:50.900Z,58.77
2022-10-12T21:19:54.189Z,57.63
2022-10-12T21:24:57.588Z,56.07
2022-10-12T21:30:00.975Z,48.47
2022-10-12T21:35:04.697Z,39.40
2022-10-12T21:40:08.847Z,49.17
2022-10-12T21:45:12.341Z,47.90
2022-10-12T21:50:15.857Z,55.17
2022-10-12T21:55:19.254Z,46.63
2022-10-12T22:00:22.634Z,47.47
2022-10-12T22:05:25.925Z,46.57
2022-10-12T22:10:29.425Z,47.50
2022-10-12T22:15:32.833Z,50.73
2022-10-12T22:20:39.457Z,62.23
2022-10-12T22:25:43.741Z,45.40
2022-10-12T22:30:47.488Z,45.93
2022-10-12T22:35:59.077Z,40.07
2022-10-12T22:41:13.931Z,45.33
2022-10-12T22:46:17.926Z,45.60
2022-10-12T22:51:34.291Z,42.03
2022-10-12T22:56:37.755Z,43.73
2022-10-12T23:01:41.520Z,43.67
2022-10-12T23:06:44.884Z,44.77
2022-10-12T23:11:51.167Z,39.67
2022-10-12T23:16:54.467Z,47.47
2022-10-12T23:21:57.892Z,37.37
2022-10-12T23:27:01.226Z,40.03
